createdAt,value
2019-05-20T00:05:00.578Z,98235.01
2019-05-20T00:10:04.651Z,98229.39
2019-05-20T00:15:08.144Z,98227.61
2019-05-20T00:20:11.139Z,98211.78
2019-05-20T00:25:14.098Z,98210.87
2019-05-20T00:30:17.451Z,98206.62
2019-05-20T00:35:20.467Z,98204.75
2019-05-20T00:40:23.428Z,98193.48
2019-05-20T00:45:26.425Z,98189.23
2019-05-20T00:50:29.459Z,98191.61
2019-05-20T00:55:33.545Z,98197.53
2019-05-20T01:00:36.825Z,98200.52
2019-05-20T01:05:39.923Z,98199.22
2019-05-20T01:10:42.921Z,98193.84
2019-05-20T01:15:46.070Z,98189.48
2019-05-20T01:20:49.124Z,98186.27
2019-05-20T01:25:52.087Z,98183.09
2019-05-20T01:30:55.093Z,98169.20
2019-05-20T01:35:58.090Z,98156.89
2019-05-20T01:41:01.056Z,98156.66
2019-05-20T01:46:04.328Z,98140.67
2019-05-20T01:51:07.799Z,98142.05
2019-05-20T01:56:10.954Z,98128.45
2019-05-20T02:01:14.253Z,98106.59
2019-05-20T02:06:17.248Z,98092.20
2019-05-20T02:11:20.196Z,98081.56
2019-05-20T02:16:23.774Z,98080.23
2019-05-20T02:21:26.950Z,98060.21
2019-05-20T02:26:30.519Z,98073.22
2019-05-20T02:31:33.729Z,98048.80
2019-05-20T02:36:36.662Z,98048.27
2019-05-20T02:41:39.622Z,98053.23
2019-05-20T02:46:42.703Z,98068.34
2019-05-20T02:51:45.693Z,98079.83
2019-05-20T02:56:48.958Z,98072.02
2019-05-20T03:01:52.065Z,98065.16
2019-05-20T03:06:55.227Z,98072.59
2019-05-20T03:11:58.302Z,98071.22
2019-05-20T03:17:01.344Z,98071.76
2019-05-20T03:22:04.329Z,98066.59
2019-05-20T03:27:07.302Z,98064.35
2019-05-20T03:32:10.347Z,98067.52
2019-05-20T03:37:13.368Z,98077.98
2019-05-20T03:42:16.344Z,98078.52
2019-05-20T03:47:19.336Z,98075.31
2019-05-20T03:52:22.302Z,98087.86
2019-05-20T03:57:25.257Z,98079.86
2019-05-20T04:02:28.263Z,98087.28
2019-05-20T04:07:31.477Z,98081.16
2019-05-20T04:12:34.483Z,98080.86
2019-05-20T04:17:37.542Z,98058.27
2019-05-20T04:22:40.624Z,98034.53
2019-05-20T04:27:43.653Z,98040.91
2019-05-20T04:32:46.650Z,98033.45
2019-05-20T04:37:49.616Z,98033.95
2019-05-20T04:42:52.589Z,98017.19
2019-05-20T04:47:55.583Z,98014.23
2019-05-20T04:52:58.556Z,98016.52
2019-05-20T04:58:01.559Z,98035.94
2019-05-20T05:03:04.575Z,98042.77
2019-05-20T05:08:07.881Z,98018.98
2019-05-20T05:13:11.450Z,98009.02
2019-05-20T05:18:14.550Z,98009.86
2019-05-20T05:23:17.930Z,98009.31
2019-05-20T05:28:21.101Z,97993.17
2019-05-20T05:33:24.107Z,98002.88
2019-05-20T05:38:27.130Z,97986.20
2019-05-20T05:43:30.203Z,97974.36
2019-05-20T05:48:33.142Z,97998.95
2019-05-20T05:53:36.112Z,98023.14
2019-05-20T05:58:39.303Z,98061.14
2019-05-20T06:03:42.443Z,98076.38
2019-05-20T06:08:45.996Z,98089.88
2019-05-20T06:13:49.033Z,98070.98
2019-05-20T06:18:52.048Z,98060.11
2019-05-20T06:23:55.277Z,98050.98
2019-05-20T06:28:58.255Z,98033.63
2019-05-20T06:34:01.453Z,98018.73
2019-05-20T06:39:13.257Z,98008.49
2019-05-20T06:44:16.301Z,98005.63
2019-05-20T06:49:19.361Z,98026.97
2019-05-20T06:54:22.475Z,98050.23
2019-05-20T06:59:25.444Z,98031.99
2019-05-20T07:04:28.634Z,98045.33
2019-05-20T07:09:31.860Z,98048.47
2019-05-20T07:14:34.989Z,98045.16
2019-05-20T07:19:38.370Z,98035.77
2019-05-20T07:24:41.460Z,98036.49
2019-05-20T07:29:44.530Z,98042.57
2019-05-20T07:34:47.668Z,98051.59
2019-05-20T07:39:50.635Z,98041.52
2019-05-20T07:44:53.600Z,98046.14
2019-05-20T07:49:57.232Z,98047.13
2019-05-20T07:55:01.431Z,98054.70
2019-05-20T08:00:05.405Z,98065.73
2019-05-20T08:05:08.917Z,98079.05
2019-05-20T08:10:12.588Z,98076.16
2019-05-20T08:15:15.890Z,98088.97
2019-05-20T08:20:18.905Z,98100.72
2019-05-20T08:25:22.008Z,98101.81
2019-05-20T08:30:34.400Z,98102.06
2019-05-20T08:35:37.378Z,98103.98
2019-05-20T08:40:41.829Z,98121.73
2019-05-20T08:45:44.928Z,98127.06
2019-05-20T08:50:48.145Z,98135.13
2019-05-20T08:55:51.238Z,98142.12
2019-05-20T09:00:54.299Z,98149.32
2019-05-20T09:05:57.362Z,98161.89
2019-05-20T09:11:00.378Z,98163.67
2019-05-20T09:16:03.633Z,98179.45
2019-05-20T09:21:07.526Z,98201.11
2019-05-20T09:26:10.551Z,98206.75
2019-05-20T09:31:13.788Z,98212.39
2019-05-20T09:36:16.898Z,98219.75
2019-05-20T09:41:19.897Z,98229.53
2019-05-20T09:46:22.856Z,98224.46
2019-05-20T09:51:25.991Z,98247.23
2019-05-20T09:56:29.177Z,98237.37
2019-05-20T10:01:32.235Z,98252.80
2019-05-20T10:06:35.393Z,98251.77
2019-05-20T10:11:38.379Z,98268.16
2019-05-20T10:16:41.376Z,98264.99
2019-05-20T10:21:44.534Z,98268.39
2019-05-20T10:26:47.510Z,98273.53
2019-05-20T10:31:50.695Z,98275.09
2019-05-20T10:36:53.691Z,98276.23
2019-05-20T10:41:56.763Z,98278.42
2019-05-20T10:46:59.782Z,98290.08
2019-05-20T10:52:02.769Z,98304.88
2019-05-20T10:57:05.775Z,98295.13
2019-05-20T11:02:08.716Z,98318.86
2019-05-20T11:07:11.705Z,98331.20
2019-05-20T11:12:14.753Z,98322.48
2019-05-20T11:17:17.714Z,98321.05
2019-05-20T11:22:20.887Z,98326.52
2019-05-20T11:27:23.956Z,98319.70
2019-05-20T11:32:26.909Z,98319.92
2019-05-20T11:37:29.981Z,98312.62
2019-05-20T11:42:33.087Z,98313.61
2019-05-20T11:47:36.081Z,98311.15
2019-05-20T11:52:39.208Z,98313.29
2019-05-20T11:57:42.401Z,98321.28
2019-05-20T12:02:45.709Z,98329.22
2019-05-20T12:07:48.823Z,98327.08
2019-05-20T12:12:52.012Z,98335.33
2019-05-20T12:17:55.128Z,98329.22
2019-05-20T12:22:58.320Z,98330.48
2019-05-20T12:28:01.318Z,98323.33
2019-05-20T12:33:18.091Z,98305.12
2019-05-20T12:38:09.188Z,98304.36
2019-05-20T12:43:12.310Z,98299.58
2019-05-20T12:48:15.530Z,98300.77
2019-05-20T12:53:18.521Z,98290.75
2019-05-20T12:58:21.574Z,98265.03
2019-05-20T13:03:24.603Z,98260.73
2019-05-20T13:08:27.691Z,98244.95
2019-05-20T13:13:30.823Z,98226.84
2019-05-20T13:18:33.936Z,98229.95
2019-05-20T13:23:36.948Z,98217.81
2019-05-20T13:28:39.994Z,98228.64
2019-05-20T13:33:43.090Z,98235.67
2019-05-20T13:38:46.342Z,98242.06
2019-05-20T13:43:49.289Z,98238.38
2019-05-20T13:48:52.307Z,98229.86
2019-05-20T13:53:55.349Z,98234.30
2019-05-20T13:58:58.296Z,98243.12
2019-05-20T14:04:01.212Z,98250.09
2019-05-20T14:09:07.512Z,98250.55
2019-05-20T14:14:09.310Z,98243.58
2019-05-20T14:19:12.327Z,98245.48
2019-05-20T14:24:15.358Z,98238.14
2019-05-20T14:29:18.473Z,98242.17
2019-05-20T14:34:23.332Z,98240.90
2019-05-20T14:39:26.679Z,98241.46
2019-05-20T14:44:29.684Z,98226.39
2019-05-20T14:49:32.693Z,98229.06
2019-05-20T14:54:35.649Z,98224.58
2019-05-20T14:59:38.629Z,98228.52
2019-05-20T15:04:41.694Z,98222.67
2019-05-20T15:09:44.957Z,98223.20
2019-05-20T15:14:47.918Z,98222.69
2019-05-20T15:19:51.166Z,98231.78
2019-05-20T15:24:54.352Z,98226.25
2019-05-20T15:29:57.311Z,98230.36
2019-05-20T15:35:00.287Z,98223.02
2019-05-20T15:40:03.823Z,98215.72
2019-05-20T15:45:09.260Z,98215.17
2019-05-20T15:50:12.814Z,98204.02
2019-05-20T15:55:15.866Z,98193.21
2019-05-20T16:00:19.552Z,98186.55
2019-05-20T16:05:22.546Z,98188.36
2019-05-20T16:10:25.558Z,98195.97
2019-05-20T16:15:28.803Z,98194.44
2019-05-20T16:20:31.875Z,98190.98
2019-05-20T16:25:35.002Z,98195.88
2019-05-20T16:30:38.095Z,98189.61
2019-05-20T16:35:41.138Z,98194.37
2019-05-20T16:40:44.430Z,98186.98
2019-05-20T16:45:47.541Z,98197.39
2019-05-20T16:50:50.568Z,98194.53
2019-05-20T16:55:53.590Z,98199.46
2019-05-20T17:00:56.632Z,98199.56
2019-05-20T17:05:59.647Z,98201.30
2019-05-20T17:11:02.640Z,98203.66
2019-05-20T17:16:05.668Z,98199.13
2019-05-20T17:21:08.638Z,98217.01
2019-05-20T17:26:11.675Z,98225.27
2019-05-20T17:31:14.768Z,98233.91
2019-05-20T17:36:17.777Z,98236.77
2019-05-20T17:41:20.803Z,98250.39
2019-05-20T17:46:24.194Z,98243.19
2019-05-20T17:51:27.377Z,98246.44
2019-05-20T17:56:30.851Z,98234.73
2019-05-20T18:01:34.144Z,98226.20
2019-05-20T18:06:37.325Z,98234.71
2019-05-20T18:11:40.334Z,98244.21
2019-05-20T18:16:43.388Z,98243.49
2019-05-20T18:21:46.423Z,98253.47
2019-05-20T18:26:49.681Z,98259.18
2019-05-20T18:31:52.764Z,98256.94
2019-05-20T18:36:55.872Z,98249.62
2019-05-20T18:41:58.892Z,98246.83
2019-05-20T18:47:02.083Z,98245.42
2019-05-20T18:52:05.305Z,98252.24
2019-05-20T18:57:08.379Z,98255.00
2019-05-20T19:02:11.766Z,98260.59
2019-05-20T19:07:14.908Z,98264.18
2019-05-20T19:12:18.175Z,98263.67
2019-05-20T19:17:24.402Z,98261.57
2019-05-20T19:22:27.559Z,98267.17
2019-05-20T19:27:30.628Z,98263.06
2019-05-20T19:32:33.671Z,98263.80
2019-05-20T19:37:36.676Z,98259.28
2019-05-20T19:42:39.802Z,98257.73
2019-05-20T19:47:42.868Z,98263.23
2019-05-20T19:52:45.977Z,98273.22
2019-05-20T19:57:49.031Z,98264.75
2019-05-20T20:02:52.051Z,98272.16
2019-05-20T20:07:55.475Z,98270.38
2019-05-20T20:12:58.531Z,98271.34
2019-05-20T20:18:01.567Z,98272.04
2019-05-20T20:23:04.568Z,98271.42
2019-05-20T20:28:07.563Z,98263.71
2019-05-20T20:33:10.654Z,98261.88
2019-05-20T20:38:13.779Z,98266.81
2019-05-20T20:43:16.956Z,98255.34
2019-05-20T20:48:19.984Z,98262.80
2019-05-20T20:53:22.982Z,98256.11
2019-05-20T20:58:25.976Z,98268.04
2019-05-20T21:03:29.162Z,98267.48
2019-05-20T21:08:32.259Z,98275.74
2019-05-20T21:13:35.288Z,98284.30
2019-05-20T21:18:38.294Z,98284.41
2019-05-20T21:23:41.415Z,98306.66
2019-05-20T21:28:44.374Z,98302.24
2019-05-20T21:33:47.357Z,98290.55
2019-05-20T21:38:50.333Z,98302.97
2019-05-20T21:43:53.409Z,98291.95
2019-05-20T21:48:56.619Z,98295.95
2019-05-20T21:53:59.565Z,98294.37
2019-05-20T21:59:02.532Z,98285.25
2019-05-20T22:04:05.609Z,98280.66
2019-05-20T22:09:08.591Z,98285.87
2019-05-20T22:14:11.655Z,98283.20
2019-05-20T22:19:14.699Z,98291.91
2019-05-20T22:24:17.997Z,98283.17
2019-05-20T22:29:20.957Z,98287.77
2019-05-20T22:34:24.005Z,98289.19
2019-05-20T22:39:26.993Z,98290.34
2019-05-20T22:44:29.937Z,98275.75
2019-05-20T22:49:34.046Z,98273.36
2019-05-20T22:54:36.997Z,98269.08
2019-05-20T22:59:39.990Z,98262.55
2019-05-20T23:04:42.971Z,98263.27
2019-05-20T23:09:46.073Z,98255.70
2019-05-20T23:14:49.058Z,98267.58
2019-05-20T23:19:52.068Z,98262.01
2019-05-20T23:24:54.999Z,98254.92
2019-05-20T23:29:58.016Z,98259.13
2019-05-20T23:35:01.017Z,98265.67
2019-05-20T23:40:04.835Z,98250.25
2019-05-20T23:45:09.721Z,98257.03
2019-05-20T23:50:13.011Z,98258.58
2019-05-20T23:55:16.173Z,98257.63
